Time;durP1;ratioP1;P1;durP2;ratioP2;P2;SDS_P1;SDS_P2;PMS_P1;PMS_P2;Temp;Humidity;BMP_temperature;BMP_pressure;BME280_temperature;BME280_humidity;BME280_pressure;Samples;Min_cycle;Max_cycle;Signal;HPM_P1;HPM_P2
2023/01/30 00:01:16;;;;;;;36.80;33.60;;;;;;;-3.12;79.92;97951.27;108953;1273;22218;-82
2023/01/30 00:03:45;;;;;;;37.60;34.40;;;;;;;-3.13;79.93;97942.86;108987;1296;22960;-83
2023/01/30 00:06:13;;;;;;;38.80;35.00;;;;;;;-3.14;79.55;97935.48;108829;1296;22321;-84
2023/01/30 00:08:42;;;;;;;38.40;34.70;;;;;;;-3.17;79.36;97924.80;108954;1296;22125;-84
2023/01/30 00:11:12;;;;;;;35.80;32.10;;;;;;;-3.16;79.68;97917.23;108950;1292;22186;-82
2023/01/30 00:13:41;;;;;;;36.00;32.70;;;;;;;-3.11;79.83;97913.41;108811;1296;22281;-83
2023/01/30 00:16:10;;;;;;;34.60;31.40;;;;;;;-3.05;79.94;97908.60;108670;1296;22857;-89
2023/01/30 00:18:39;;;;;;;35.60;32.40;;;;;;;-3.05;80.10;97900.45;108878;1295;22252;-89
2023/01/30 00:21:09;;;;;;;37.10;33.80;;;;;;;-3.05;79.77;97893.36;109076;1296;22249;-92
2023/01/30 00:23:38;;;;;;;38.30;34.90;;;;;;;-3.07;79.53;97886.59;109111;1292;22254;-92
2023/01/30 00:26:07;;;;;;;38.70;35.40;;;;;;;-3.11;79.47;97877.42;108984;1296;22288;-91
2023/01/30 00:28:35;;;;;;;34.30;31.20;;;;;;;-3.13;79.39;97873.69;108891;1296;22235;-92
2023/01/30 00:31:04;;;;;;;33.60;30.40;;;;;;;-3.12;79.34;97862.94;109007;1296;22241;-90
2023/01/30 00:33:35;;;;;;;33.90;31.10;;;;;;;-3.08;79.72;97856.80;109039;1296;22251;-91
2023/01/30 00:36:04;;;;;;;33.90;30.80;;;;;;;-3.04;79.86;97846.87;108700;1296;22247;-89
2023/01/30 00:38:32;;;;;;;35.10;31.90;;;;;;;-3.04;79.89;97842.53;109032;1296;22304;-89
2023/01/30 00:41:02;;;;;;;33.30;30.40;;;;;;;-3.03;79.62;97843.86;108984;1296;22163;-88
2023/01/30 00:49:19;;;;;;;32.40;29.40;;;;;;;-3.13;79.12;97827.39;108972;1296;23109;-87
2023/01/30 00:51:46;;;;;;;30.50;27.70;;;;;;;-3.13;79.38;97825.89;108803;1296;22158;-89
2023/01/30 00:54:15;;;;;;;32.20;29.20;;;;;;;-3.06;80.00;97819.30;108978;1296;22300;-88
2023/01/30 00:56:42;;;;;;;32.80;29.70;;;;;;;-3.09;79.72;97808.98;108968;1296;22158;-89
2023/01/30 00:59:10;;;;;;;33.70;30.60;;;;;;;-3.13;79.69;97804.60;109009;1296;22174;-88
2023/01/30 01:01:38;;;;;;;32.40;29.30;;;;;;;-3.14;79.29;97796.45;108979;1296;22193;-89
2023/01/30 01:04:10;;;;;;;31.70;28.90;;;;;;;-3.19;79.18;97794.91;108973;1296;22214;-89
2023/01/30 01:06:39;;;;;;;32.40;29.30;;;;;;;-3.23;79.27;97795.46;108706;1296;22135;-89
2023/01/30 01:09:07;;;;;;;30.40;27.30;;;;;;;-3.23;79.29;97794.37;108815;1296;22277;-89
2023/01/30 01:11:35;;;;;;;30.60;27.60;;;;;;;-3.23;79.44;97792.41;108973;1296;22182;-89
2023/01/30 01:14:04;;;;;;;30.30;27.50;;;;;;;-3.24;79.60;97793.23;108989;1296;22188;-89
2023/01/30 01:16:34;;;;;;;30.80;28.10;;;;;;;-3.25;79.32;97792.38;108977;1292;22222;-88
2023/01/30 01:19:02;;;;;;;29.60;27.00;;;;;;;-3.31;79.04;97787.08;108979;1296;22230;-87
2023/01/30 01:21:31;;;;;;;28.40;25.80;;;;;;;-3.40;78.92;97778.94;109015;1296;22230;-88
2023/01/30 01:23:59;;;;;;;28.40;25.90;;;;;;;-3.44;79.30;97773.59;108959;1296;22150;-88
2023/01/30 01:26:28;;;;;;;28.00;25.60;;;;;;;-3.48;79.75;97771.38;108979;1296;22147;-88
2023/01/30 01:28:57;;;;;;;29.80;27.20;;;;;;;-3.54;79.61;97765.69;108982;1296;22159;-89
2023/01/30 01:31:25;;;;;;;32.50;29.60;;;;;;;-3.60;79.49;97765.13;108986;1296;22241;-90
2023/01/30 01:33:55;;;;;;;33.40;30.20;;;;;;;-3.67;79.38;97756.58;108865;1296;22133;-89
2023/01/30 01:36:25;;;;;;;31.40;28.50;;;;;;;-3.75;79.15;97755.67;109082;1296;22137;-90
2023/01/30 01:39:13;;;;;;;30.40;27.70;;;;;;;-3.79;79.58;97747.72;108884;1296;22146;-90
2023/01/30 01:41:42;;;;;;;32.20;29.00;;;;;;;-3.80;80.05;97739.98;109012;1296;22241;-89
2023/01/30 01:44:12;;;;;;;32.20;29.20;;;;;;;-3.86;80.20;97730.73;108972;1296;22278;-89
2023/01/30 01:46:56;;;;;;;31.80;29.00;;;;;;;-3.89;79.94;97725.13;109000;1296;22157;-90
2023/01/30 01:49:33;;;;;;;31.40;28.70;;;;;;;-3.99;79.89;97728.78;109039;1296;22150;-92
2023/01/30 01:52:10;;;;;;;30.60;27.80;;;;;;;-4.07;79.95;97725.33;109058;1295;22240;-89
2023/01/30 01:54:47;;;;;;;28.50;26.00;;;;;;;-4.11;80.03;97720.45;109032;1296;22928;-92
2023/01/30 01:57:41;;;;;;;28.70;26.20;;;;;;;-4.13;80.31;97716.98;108997;1296;22134;-90
2023/01/30 02:00:12;;;;;;;31.10;28.10;;;;;;;-4.08;81.33;97713.36;108840;1296;22219;-89
2023/01/30 02:02:49;;;;;;;32.20;29.30;;;;;;;-4.12;80.97;97705.73;108865;1292;22124;-90
2023/01/30 02:05:18;;;;;;;32.30;29.40;;;;;;;-4.19;80.76;97706.67;109004;1296;22234;-90
2023/01/30 02:07:50;;;;;;;32.80;30.10;;;;;;;-4.26;80.62;97713.39;108981;1296;22232;-90
2023/01/30 02:10:23;;;;;;;29.50;26.90;;;;;;;-4.33;80.65;97700.90;108999;1296;22157;-89
2023/01/30 02:12:51;;;;;;;28.80;26.30;;;;;;;-4.34;81.01;97693.15;108991;1283;22285;-89
2023/01/30 02:15:21;;;;;;;27.50;25.20;;;;;;;-4.36;81.37;97687.90;108832;1296;22181;-89
2023/01/30 02:17:49;;;;;;;30.90;28.20;;;;;;;-4.39;81.33;97691.98;108883;1296;22990;-88
2023/01/30 02:20:45;;;;;;;30.50;27.80;;;;;;;-4.43;81.15;97688.27;108977;1296;22245;-89
2023/01/30 02:23:54;;;;;;;32.10;29.30;;;;;;;-4.49;81.04;97672.44;108964;1296;22309;-90
2023/01/30 02:26:44;;;;;;;28.30;25.70;;;;;;;-4.54;81.03;97668.50;108832;1296;22255;-89
2023/01/30 02:29:33;;;;;;;27.40;25.00;;;;;;;-4.53;81.48;97661.85;109007;1296;22127;-90
2023/01/30 02:32:26;;;;;;;27.10;24.90;;;;;;;-4.52;81.68;97658.05;108881;1282;22169;-90
2023/01/30 02:34:58;;;;;;;29.30;26.80;;;;;;;-4.54;81.84;97651.34;108974;1296;22143;-89
2023/01/30 02:37:26;;;;;;;27.40;24.90;;;;;;;-4.55;81.67;97652.52;109224;1296;22262;-90
2023/01/30 02:40:06;;;;;;;26.40;24.20;;;;;;;-4.54;81.87;97652.35;109205;1296;22204;-90
2023/01/30 02:42:41;;;;;;;25.50;23.40;;;;;;;-4.50;82.25;97641.34;109069;1296;22186;-90
2023/01/30 02:45:21;;;;;;;25.10;23.10;;;;;;;-4.45;82.86;97637.54;109278;1296;22234;-89
2023/01/30 02:47:57;;;;;;;24.70;22.40;;;;;;;-4.42;82.61;97635.59;109204;1296;22255;-87
2023/01/30 02:50:31;;;;;;;24.60;22.40;;;;;;;-4.42;82.13;97624.50;108923;1296;22314;-88
2023/01/30 02:53:00;;;;;;;22.60;20.70;;;;;;;-4.42;82.11;97619.28;108988;1296;22755;-87
2023/01/30 02:55:28;;;;;;;23.20;21.20;;;;;;;-4.38;82.36;97613.85;108816;1296;22816;-89
2023/01/30 02:57:57;;;;;;;22.00;20.00;;;;;;;-4.33;82.58;97609.17;108872;1296;22191;-89
2023/01/30 03:00:37;;;;;;;21.70;19.00;;;;;;;-4.29;82.69;97611.98;108853;1296;22139;-89
2023/01/30 03:03:32;;;;;;;22.50;20.30;;;;;;;-4.28;82.33;97608.56;108985;1296;23068;-89
2023/01/30 03:06:18;;;;;;;20.90;18.90;;;;;;;-4.26;82.20;97590.67;108955;1296;22160;-89
2023/01/30 03:09:05;;;;;;;19.70;18.00;;;;;;;-4.20;82.90;97590.85;108867;1295;22199;-87
2023/01/30 03:11:48;;;;;;;19.10;17.50;;;;;;;-4.17;82.80;97591.80;108859;1295;22229;-88
2023/01/30 03:14:25;;;;;;;20.60;18.80;;;;;;;-4.13;82.60;97593.92;109053;1296;22281;-88
2023/01/30 03:16:56;;;;;;;20.90;19.10;;;;;;;-4.15;82.34;97592.35;109203;1295;22312;-87
2023/01/30 03:19:27;;;;;;;20.50;18.70;;;;;;;-4.11;82.71;97601.31;108973;1296;22298;-87
2023/01/30 03:21:55;;;;;;;21.80;19.90;;;;;;;-4.08;82.88;97597.61;109196;1296;22828;-89
2023/01/30 03:24:24;;;;;;;22.30;20.40;;;;;;;-4.06;82.74;97598.61;109061;1296;22160;-89
2023/01/30 03:27:02;;;;;;;23.10;21.00;;;;;;;-4.06;82.53;97587.83;109011;1295;22261;-89
2023/01/30 03:33:38;;;;;;;23.30;21.20;;;;;;;-4.01;82.69;97574.33;108953;1296;22180;-91
2023/01/30 03:36:08;;;;;;;23.30;21.20;;;;;;;-4.02;82.57;97586.80;109181;1296;22291;-92
2023/01/30 03:38:36;;;;;;;19.60;17.90;;;;;;;-4.02;82.27;97574.91;108854;1293;22299;-90
2023/01/30 03:41:05;;;;;;;20.40;18.40;;;;;;;-4.02;82.74;97566.40;108882;1296;22999;-88
2023/01/30 03:43:33;;;;;;;21.20;19.40;;;;;;;-3.98;82.79;97562.77;108893;1295;22348;-88
2023/01/30 03:46:02;;;;;;;22.00;20.00;;;;;;;-3.99;82.63;97562.21;108901;1296;22187;-86
2023/01/30 03:48:32;;;;;;;22.90;21.00;;;;;;;-4.02;82.52;97558.10;109300;1295;22249;-86
2023/01/30 03:51:00;;;;;;;21.50;19.60;;;;;;;-4.02;82.45;97557.86;109342;1296;22645;-85
2023/01/30 03:53:29;;;;;;;22.20;20.20;;;;;;;-3.99;82.67;97545.37;109361;1295;21966;-85
2023/01/30 03:55:57;;;;;;;20.90;19.10;;;;;;;-3.97;83.11;97535.19;109317;1296;22250;-88
2023/01/30 03:58:27;;;;;;;22.60;20.60;;;;;;;-3.95;82.75;97532.66;109311;1295;22238;-86
2023/01/30 04:00:56;;;;;;;21.40;19.50;;;;;;;-3.97;82.50;97536.28;108998;1295;22395;-87
2023/01/30 04:03:25;;;;;;;21.90;20.00;;;;;;;-3.99;82.25;97542.41;109331;1296;22186;-86
2023/01/30 04:05:55;;;;;;;20.30;18.50;;;;;;;-4.03;83.01;97521.31;109332;1296;22021;-86
2023/01/30 04:08:25;;;;;;;21.60;19.70;;;;;;;-4.04;83.03;97514.15;109065;1295;22317;-84
2023/01/30 04:10:53;;;;;;;21.80;19.80;;;;;;;-4.05;83.09;97508.81;108734;1276;22255;-84
2023/01/30 04:13:22;;;;;;;21.40;19.50;;;;;;;-4.07;82.87;97501.86;108700;1296;22234;-83
2023/01/30 04:15:50;;;;;;;21.60;19.70;;;;;;;-4.08;82.87;97505.08;108884;1296;22156;-84
2023/01/30 04:23:00;;;;;;;23.10;21.20;;;;;;;-4.07;83.08;97501.05;108947;1295;22157;-83
2023/01/30 04:25:28;;;;;;;22.80;20.80;;;;;;;-4.10;83.01;97491.59;108876;1296;22859;-84
2023/01/30 04:27:57;;;;;;;21.30;19.40;;;;;;;-4.09;83.01;97493.38;108891;1296;22129;-89
2023/01/30 04:30:29;;;;;;;20.20;18.30;;;;;;;-4.06;83.38;97480.77;108707;1295;22204;-89
2023/01/30 04:33:11;;;;;;;19.90;18.20;;;;;;;-4.03;83.71;97480.10;108862;1296;22150;-90
2023/01/30 04:35:40;;;;;;;21.30;19.30;;;;;;;-4.01;83.69;97481.66;109052;1296;22164;-89
2023/01/30 04:38:08;;;;;;;22.40;20.40;;;;;;;-4.02;83.29;97470.36;108965;1274;22305;-90
2023/01/30 04:40:36;;;;;;;22.80;20.40;;;;;;;-4.00;83.00;97463.52;108848;1296;23244;-91
2023/01/30 04:43:05;;;;;;;21.10;19.30;;;;;;;-3.97;83.53;97467.58;108982;1296;22131;-90
2023/01/30 04:45:52;;;;;;;20.80;18.90;;;;;;;-3.94;83.41;97466.28;109138;1296;22314;-91
2023/01/30 04:48:23;;;;;;;22.30;20.40;;;;;;;-3.97;83.24;97464.61;108845;1296;22170;-91
2023/01/30 04:50:54;;;;;;;24.40;22.20;;;;;;;-3.98;83.21;97463.65;108833;1296;22125;-91
2023/01/30 04:57:55;;;;;;;20.60;18.80;;;;;;;-3.89;83.15;97468.47;108960;1296;23016;-89
2023/01/30 05:00:25;;;;;;;20.90;19.10;;;;;;;-3.89;82.99;97467.46;108985;1296;23348;-90
2023/01/30 05:02:56;;;;;;;20.90;19.10;;;;;;;-3.86;82.27;97467.06;108846;1296;22138;-89
2023/01/30 05:05:25;;;;;;;19.70;18.00;;;;;;;-3.86;82.50;97462.50;108827;1282;22902;-89
2023/01/30 05:07:53;;;;;;;20.80;19.00;;;;;;;-3.83;82.74;97463.31;108983;1296;22159;-88
2023/01/30 05:10:22;;;;;;;21.00;19.00;;;;;;;-3.79;82.76;97458.20;108821;1296;22177;-89
2023/01/30 05:12:50;;;;;;;23.10;21.10;;;;;;;-3.80;82.24;97460.30;108864;1295;22132;-89
2023/01/30 05:15:18;;;;;;;22.20;20.30;;;;;;;-3.81;81.63;97460.61;108920;1296;22142;-90
2023/01/30 05:17:47;;;;;;;22.20;20.40;;;;;;;-3.80;81.80;97448.98;108898;1296;22156;-91
2023/01/30 05:20:16;;;;;;;23.00;20.90;;;;;;;-3.79;82.01;97439.46;109057;1296;22157;-92
2023/01/30 05:22:44;;;;;;;23.20;21.10;;;;;;;-3.73;82.06;97435.80;108729;1296;22207;-93
2023/01/30 05:25:13;;;;;;;25.00;23.00;;;;;;;-3.70;81.50;97426.23;109055;1296;23152;-91
2023/01/30 05:27:41;;;;;;;25.20;23.10;;;;;;;-3.69;81.10;97427.48;108943;1296;22182;-93
2023/01/30 05:30:10;;;;;;;24.70;22.40;;;;;;;-3.71;80.89;97418.15;108876;1296;22221;-91
2023/01/30 05:32:43;;;;;;;22.80;20.90;;;;;;;-3.68;81.07;97410.91;108729;1296;22242;-91
2023/01/30 05:35:14;;;;;;;22.90;20.90;;;;;;;-3.60;81.01;97409.61;108635;1296;22335;-92
2023/01/30 05:41:55;;;;;;;24.70;22.60;;;;;;;-3.59;79.81;97392.52;109165;1292;22156;-91
2023/01/30 05:44:23;;;;;;;22.90;20.90;;;;;;;-3.58;79.33;97390.02;109073;1296;22162;-92
2023/01/30 05:46:51;;;;;;;23.70;21.50;;;;;;;-3.54;79.64;97394.02;109013;1296;22174;-92
2023/01/30 05:49:20;;;;;;;24.10;22.10;;;;;;;-3.50;79.30;97385.14;109104;1296;22149;-93
2023/01/30 05:51:49;;;;;;;28.50;25.90;;;;;;;-3.51;79.26;97372.75;108765;1296;22178;-93
2023/01/30 05:54:18;;;;;;;25.10;22.80;;;;;;;-3.48;78.80;97379.80;108910;1292;22176;-93
2023/01/30 05:56:50;;;;;;;25.20;23.10;;;;;;;-3.48;78.34;97380.98;108898;1291;23007;-91
2023/01/30 05:59:18;;;;;;;24.40;22.30;;;;;;;-3.49;78.50;97367.25;108902;1296;22954;-90
2023/01/30 06:01:47;;;;;;;24.60;22.50;;;;;;;-3.44;79.05;97360.67;108989;1296;22964;-91
2023/01/30 06:04:15;;;;;;;25.60;23.50;;;;;;;-3.40;78.73;97365.50;108996;1296;22341;-92
2023/01/30 06:06:43;;;;;;;23.90;21.80;;;;;;;-3.39;78.75;97353.52;108924;1296;22372;-91
2023/01/30 06:09:11;;;;;;;26.00;23.60;;;;;;;-3.37;78.18;97336.23;109015;1296;22219;-91
2023/01/30 06:12:33;;;;;;;25.60;23.30;;;;;;;-3.36;77.87;97330.95;109015;1296;22165;-90
2023/01/30 06:15:02;;;;;;;24.90;22.40;;;;;;;-3.33;77.91;97318.58;108966;1296;22234;-89
2023/01/30 06:17:30;;;;;;;25.10;22.60;;;;;;;-3.27;78.44;97323.76;108883;1296;22211;-83
2023/01/30 06:19:58;;;;;;;24.50;22.20;;;;;;;-3.20;77.88;97331.53;108784;1296;23120;-84
2023/01/30 06:22:26;;;;;;;26.50;24.00;;;;;;;-3.17;77.33;97325.73;108929;1296;23072;-84
2023/01/30 06:24:54;;;;;;;26.00;23.80;;;;;;;-3.16;77.20;97327.13;108934;1296;22594;-84
2023/01/30 06:27:22;;;;;;;27.30;24.80;;;;;;;-3.17;77.20;97315.20;108920;1296;22248;-85
2023/01/30 06:29:50;;;;;;;27.10;24.80;;;;;;;-3.14;76.59;97329.35;108907;1296;22147;-83
2023/01/30 06:32:18;;;;;;;27.70;25.30;;;;;;;-3.12;76.41;97335.34;108917;1296;23002;-84
2023/01/30 06:34:46;;;;;;;24.60;22.50;;;;;;;-3.06;77.01;97310.30;108920;1296;22244;-83
2023/01/30 06:37:14;;;;;;;27.00;24.60;;;;;;;-3.00;76.72;97306.88;108926;1296;22235;-84
2023/01/30 06:39:42;;;;;;;27.90;25.40;;;;;;;-2.98;76.42;97304.92;108830;1296;22226;-84
2023/01/30 06:42:09;;;;;;;29.00;26.30;;;;;;;-2.97;76.24;97303.27;108922;1296;22982;-82
2023/01/30 06:44:37;;;;;;;28.70;26.20;;;;;;;-2.95;75.90;97299.52;108952;1296;23003;-86
2023/01/30 06:47:05;;;;;;;27.60;24.90;;;;;;;-2.92;76.09;97275.33;108964;1296;22161;-86
2023/01/30 06:49:33;;;;;;;26.70;24.10;;;;;;;-2.87;76.43;97272.56;108929;1290;22247;-87
2023/01/30 06:52:01;;;;;;;27.80;24.60;;;;;;;-2.81;76.64;97275.70;109066;1296;22235;-81
2023/01/30 06:54:29;;;;;;;25.50;23.20;;;;;;;-2.76;76.22;97267.95;108943;1296;22293;-81
2023/01/30 06:56:57;;;;;;;27.50;24.90;;;;;;;-2.72;75.76;97263.02;108945;1296;22286;-83
2023/01/30 06:59:25;;;;;;;25.40;23.10;;;;;;;-2.71;75.06;97269.80;108803;1296;22267;-80
2023/01/30 07:01:53;;;;;;;27.40;25.10;;;;;;;-2.71;75.20;97265.26;108984;1296;22260;-83
2023/01/30 07:04:22;;;;;;;28.10;25.40;;;;;;;-2.70;74.94;97263.40;108937;1296;22240;-82
2023/01/30 07:06:50;;;;;;;26.50;23.80;;;;;;;-2.68;74.83;97267.44;108974;1296;22177;-82
2023/01/30 07:09:18;;;;;;;24.40;22.20;;;;;;;-2.64;75.25;97267.64;108934;1296;22874;-80
2023/01/30 07:12:07;;;;;;;26.40;23.80;;;;;;;-2.55;75.27;97269.80;108953;1295;22178;-80
2023/01/30 07:14:34;;;;;;;24.90;22.70;;;;;;;-2.51;75.10;97269.47;109009;1296;22197;-80
2023/01/30 07:17:02;;;;;;;25.20;22.80;;;;;;;-2.48;74.82;97267.56;108946;1296;22250;-80
2023/01/30 07:19:30;;;;;;;23.70;21.60;;;;;;;-2.47;74.38;97270.87;108938;1296;22300;-79
2023/01/30 07:21:58;;;;;;;25.70;23.40;;;;;;;-2.45;74.26;97259.77;108943;1296;22251;-80
2023/01/30 07:24:29;;;;;;;32.50;28.90;;;;;;;-2.43;73.84;97263.41;108936;1296;22206;-80
2023/01/30 07:26:57;;;;;;;42.00;31.20;;;;;;;-2.42;73.91;97273.13;108976;1296;22161;-79
2023/01/30 07:29:25;;;;;;;25.40;22.80;;;;;;;-2.37;74.05;97265.13;108956;1296;22239;-81
2023/01/30 07:31:53;;;;;;;28.60;25.20;;;;;;;-2.32;74.50;97268.29;109024;1296;23052;-80
2023/01/30 07:34:21;;;;;;;34.50;30.00;;;;;;;-2.23;73.68;97268.05;109061;1296;22268;-80
2023/01/30 07:36:49;;;;;;;47.30;42.10;;;;;;;-2.23;73.36;97247.26;108946;1296;22291;-81
2023/01/30 07:39:17;;;;;;;28.50;26.00;;;;;;;-2.24;73.40;97243.33;108963;1296;22969;-80
2023/01/30 07:41:45;;;;;;;28.50;26.00;;;;;;;-2.21;72.68;97240.64;108939;1296;22220;-81
2023/01/30 07:44:13;;;;;;;29.70;26.90;;;;;;;-2.24;72.49;97237.11;108969;1296;22277;-80
2023/01/30 07:46:41;;;;;;;28.70;26.20;;;;;;;-2.24;72.73;97245.66;108939;1296;22240;-79
2023/01/30 07:49:09;;;;;;;25.90;23.40;;;;;;;-2.23;72.96;97246.78;108950;1296;22983;-79
2023/01/30 07:51:37;;;;;;;24.10;21.80;;;;;;;-2.17;73.24;97250.71;108953;1296;22283;-80
2023/01/30 07:54:05;;;;;;;24.50;22.10;;;;;;;-2.13;72.99;97240.12;108958;1296;22860;-79
2023/01/30 07:56:33;;;;;;;28.60;25.80;;;;;;;-2.12;72.44;97217.45;108852;1296;22947;-80
2023/01/30 07:59:02;;;;;;;28.50;25.80;;;;;;;-2.12;72.42;97208.75;108935;1296;22998;-80
2023/01/30 08:01:31;;;;;;;28.40;25.70;;;;;;;-2.13;72.42;97220.06;108846;1296;22321;-81
2023/01/30 08:03:59;;;;;;;28.50;25.60;;;;;;;-2.12;72.56;97228.84;108952;1296;22980;-81
2023/01/30 08:06:28;;;;;;;28.20;25.70;;;;;;;-2.10;72.22;97231.65;108974;1296;22227;-80
2023/01/30 08:09:02;;;;;;;28.40;25.50;;;;;;;-2.09;72.60;97232.52;109045;1296;22270;-81
2023/01/30 08:11:29;;;;;;;26.20;23.40;;;;;;;-2.00;73.04;97234.26;108958;1296;22321;-79
2023/01/30 08:13:57;;;;;;;26.20;23.50;;;;;;;-1.90;73.13;97228.70;108966;1295;22228;-80
2023/01/30 08:16:26;;;;;;;27.80;25.20;;;;;;;-1.86;72.43;97213.77;108951;1296;22234;-80
2023/01/30 08:18:54;;;;;;;29.00;25.00;;;;;;;-1.80;72.19;97207.17;108950;1296;22250;-80
2023/01/30 08:21:22;;;;;;;33.20;29.80;;;;;;;-1.75;71.99;97210.38;108943;1296;23085;-80
2023/01/30 08:23:50;;;;;;;29.50;26.40;;;;;;;-1.72;71.78;97202.41;108947;1296;22621;-80
2023/01/30 08:26:17;;;;;;;30.90;27.50;;;;;;;-1.67;71.25;97209.59;108969;1296;22249;-80
2023/01/30 08:28:45;;;;;;;25.70;23.20;;;;;;;-1.67;71.36;97217.55;108937;1296;22755;-81
2023/01/30 08:31:15;;;;;;;24.80;22.50;;;;;;;-1.67;71.12;97213.77;109062;1296;22859;-80
2023/01/30 08:33:43;;;;;;;26.80;24.10;;;;;;;-1.67;71.14;97204.41;109028;1296;22252;-80
2023/01/30 08:36:11;;;;;;;25.50;23.00;;;;;;;-1.66;71.68;97197.17;108969;1296;22929;-80
2023/01/30 08:38:39;;;;;;;25.70;23.10;;;;;;;-1.62;72.24;97206.88;108953;1296;22243;-80
2023/01/30 08:41:08;;;;;;;25.70;23.50;;;;;;;-1.59;72.15;97191.77;108958;1296;22842;-80
2023/01/30 08:43:36;;;;;;;26.20;23.40;;;;;;;-1.57;71.86;97176.24;108941;1296;22224;-81
2023/01/30 08:46:04;;;;;;;23.10;20.80;;;;;;;-1.52;71.34;97180.36;109001;1296;22291;-80
2023/01/30 08:48:32;;;;;;;25.80;23.30;;;;;;;-1.52;71.10;97192.27;108947;1295;22300;-80
2023/01/30 08:51:16;;;;;;;28.00;25.30;;;;;;;-1.55;71.35;97175.66;108835;1296;22295;-80
2023/01/30 08:53:43;;;;;;;25.50;22.80;;;;;;;-1.55;71.47;97173.08;108965;1296;22976;-80
2023/01/30 08:56:11;;;;;;;25.70;22.90;;;;;;;-1.50;71.66;97180.81;108986;1296;22237;-80
2023/01/30 08:58:40;;;;;;;28.10;24.40;;;;;;;-1.46;72.17;97175.29;108977;1296;22155;-80
2023/01/30 09:01:08;;;;;;;26.30;23.90;;;;;;;-1.41;72.25;97176.85;109124;1296;22225;-80
2023/01/30 09:03:36;;;;;;;27.80;25.20;;;;;;;-1.33;71.78;97176.54;108954;1296;22300;-80
2023/01/30 09:06:04;;;;;;;26.50;24.10;;;;;;;-1.37;71.49;97169.73;108970;1296;22245;-80
2023/01/30 09:08:32;;;;;;;29.00;26.50;;;;;;;-1.42;71.66;97171.70;108953;1296;22323;-80
2023/01/30 09:11:02;;;;;;;28.60;26.00;;;;;;;-1.42;71.55;97175.08;108939;1296;22318;-80
2023/01/30 09:13:33;;;;;;;31.50;28.50;;;;;;;-1.41;71.61;97177.27;108949;1296;22177;-80
2023/01/30 09:16:02;;;;;;;30.60;27.50;;;;;;;-1.45;72.45;97169.59;108799;1296;22220;-80
2023/01/30 09:18:30;;;;;;;30.10;24.90;;;;;;;-1.37;73.11;97168.34;108800;1296;22659;-80
2023/01/30 09:21:03;;;;;;;25.80;23.40;;;;;;;-1.34;72.93;97147.83;108968;1296;22941;-80
2023/01/30 09:23:32;;;;;;;26.60;24.20;;;;;;;-1.40;72.88;97152.71;108934;1296;22264;-80
2023/01/30 09:26:01;;;;;;;25.90;23.50;;;;;;;-1.40;72.85;97152.23;108929;1296;23060;-80
2023/01/30 09:28:29;;;;;;;29.20;26.30;;;;;;;-1.42;73.05;97150.61;108930;1296;22190;-80
2023/01/30 09:30:58;;;;;;;26.30;23.70;;;;;;;-1.42;73.21;97144.59;108918;1296;22229;-81
2023/01/30 09:33:26;;;;;;;26.30;23.60;;;;;;;-1.37;73.80;97147.15;108926;1296;22254;-80
2023/01/30 09:35:54;;;;;;;24.20;22.00;;;;;;;-1.32;74.03;97146.58;108956;1296;22287;-80
2023/01/30 09:38:22;;;;;;;38.40;33.20;;;;;;;-1.27;74.04;97131.76;108937;1296;22241;-80
2023/01/30 09:41:08;;;;;;;31.60;28.70;;;;;;;-1.23;73.74;97125.79;108831;1296;22242;-80
2023/01/30 09:44:04;;;;;;;27.60;25.10;;;;;;;-1.22;73.73;97126.24;108923;1296;22245;-80
2023/01/30 09:46:51;;;;;;;24.50;22.10;;;;;;;-1.21;73.91;97124.71;109142;1296;22325;-80
2023/01/30 09:49:46;;;;;;;23.30;21.00;;;;;;;-1.17;74.67;97121.23;109266;1296;22301;-80
2023/01/30 09:52:37;;;;;;;25.00;22.50;;;;;;;-1.12;74.51;97112.10;109335;1296;22166;-80
2023/01/30 09:55:19;;;;;;;27.00;24.40;;;;;;;-1.06;74.13;97103.20;109293;1296;22641;-80
2023/01/30 09:57:48;;;;;;;25.50;23.00;;;;;;;-1.08;74.35;97111.53;108968;1296;22443;-80
2023/01/30 10:00:38;;;;;;;24.20;21.90;;;;;;;-1.10;74.51;97100.08;108875;1296;22189;-80
2023/01/30 10:07:30;;;;;;;25.60;23.40;;;;;;;-1.03;75.77;97093.92;108943;1296;22233;-81
2023/01/30 10:10:10;;;;;;;26.30;24.10;;;;;;;-1.08;76.03;97083.35;108966;1296;22249;-80
2023/01/30 10:12:57;;;;;;;30.40;27.70;;;;;;;-1.10;76.71;97075.70;108935;1296;22237;-81
2023/01/30 10:16:02;;;;;;;25.30;23.20;;;;;;;-1.10;77.62;97068.88;108939;1296;22266;-80
2023/01/30 10:18:59;;;;;;;30.60;28.00;;;;;;;-1.11;77.30;97055.23;108861;1296;22227;-80
2023/01/30 10:21:39;;;;;;;26.30;23.90;;;;;;;-1.10;77.34;97056.81;108919;1296;22237;-80
2023/01/30 10:24:30;;;;;;;24.80;22.80;;;;;;;-1.13;77.58;97050.87;108976;1273;22238;-80
2023/01/30 10:26:58;;;;;;;30.50;28.00;;;;;;;-1.09;78.11;97041.89;108940;1296;22223;-80
2023/01/30 10:29:34;;;;;;;27.50;25.10;;;;;;;-1.11;77.96;97033.75;108595;1296;22255;-80
2023/01/30 10:32:14;;;;;;;35.60;32.30;;;;;;;-1.11;78.00;97028.52;108931;1296;22212;-80
2023/01/30 10:34:49;;;;;;;24.70;22.70;;;;;;;-1.10;77.88;97029.80;108970;1296;22338;-81
2023/01/30 10:37:28;;;;;;;26.30;24.10;;;;;;;-1.09;78.30;97031.29;108942;1296;22200;-80
2023/01/30 10:40:21;;;;;;;23.90;21.70;;;;;;;-1.08;78.58;97039.78;108935;1296;22283;-80
2023/01/30 10:42:53;;;;;;;29.80;27.10;;;;;;;-1.08;78.31;97023.33;108952;1296;22886;-80
2023/01/30 10:45:30;;;;;;;28.70;26.10;;;;;;;-1.09;78.23;97019.56;108961;1296;22286;-80
2023/01/30 10:48:20;;;;;;;24.70;22.50;;;;;;;-1.11;78.23;97017.91;108934;1296;22122;-80
2023/01/30 10:51:16;;;;;;;26.40;24.10;;;;;;;-1.12;78.92;97021.75;108933;1296;22252;-80
2023/01/30 10:54:08;;;;;;;29.10;26.20;;;;;;;-1.08;79.23;97016.81;108942;1296;22240;-80
2023/01/30 10:56:41;;;;;;;28.80;26.10;;;;;;;-1.09;79.38;97020.83;108936;1296;23339;-80
2023/01/30 10:59:47;;;;;;;29.50;27.00;;;;;;;-1.13;79.64;97006.98;108850;1287;22130;-80
2023/01/30 11:02:38;;;;;;;30.50;27.60;;;;;;;-1.17;80.73;97003.96;108941;1296;22128;-80
2023/01/30 11:05:21;;;;;;;33.90;31.00;;;;;;;-1.19;81.14;96996.02;109067;1292;22255;-80
2023/01/30 11:07:49;;;;;;;29.30;26.70;;;;;;;-1.18;82.01;96998.36;108916;1296;22298;-80
2023/01/30 11:10:21;;;;;;;27.90;25.50;;;;;;;-1.21;82.81;96992.61;108931;1292;22280;-80
2023/01/30 11:13:07;;;;;;;28.00;25.60;;;;;;;-1.29;83.45;96987.89;108849;1296;22227;-80
2023/01/30 11:15:40;;;;;;;30.10;27.50;;;;;;;-1.30;84.18;96980.28;108964;1296;22204;-80
2023/01/30 11:18:08;;;;;;;30.80;28.40;;;;;;;-1.34;84.77;96981.81;108953;1296;22238;-80
2023/01/30 11:21:04;;;;;;;31.50;28.70;;;;;;;-1.38;84.86;96976.27;108945;1296;22230;-81
2023/01/30 11:23:42;;;;;;;28.00;25.60;;;;;;;-1.37;86.36;96970.47;108986;1296;22243;-80
2023/01/30 11:26:31;;;;;;;28.40;26.10;;;;;;;-1.37;86.73;96976.65;109006;1296;22218;-80
2023/01/30 11:29:36;;;;;;;30.40;27.70;;;;;;;-1.42;86.33;96965.29;108976;1296;22223;-80
2023/01/30 11:32:11;;;;;;;26.30;23.80;;;;;;;-1.40;87.16;96971.48;108962;1296;22284;-80
2023/01/30 11:34:42;;;;;;;28.80;26.40;;;;;;;-1.36;87.47;96951.24;108852;1296;149587;-80
2023/01/30 11:37:26;;;;;;;27.90;25.70;;;;;;;-1.35;87.58;96945.91;108965;1296;22193;-80
2023/01/30 11:39:54;;;;;;;27.00;24.60;;;;;;;-1.38;87.50;96944.88;108961;1296;22242;-80
2023/01/30 11:42:30;;;;;;;27.00;24.70;;;;;;;-1.34;87.72;96939.90;108988;1296;22211;-81
2023/01/30 11:44:59;;;;;;;32.60;29.90;;;;;;;-1.29;87.89;96939.91;108978;1296;22180;-80
2023/01/30 11:47:57;;;;;;;37.80;34.40;;;;;;;-1.28;87.39;96931.46;108953;1296;22232;-81
2023/01/30 11:50:40;;;;;;;32.40;29.30;;;;;;;-1.27;87.32;96931.48;108929;1296;22213;-80
2023/01/30 11:53:24;;;;;;;29.90;27.00;;;;;;;-1.21;87.60;96923.26;108985;1296;22827;-80
2023/01/30 11:55:57;;;;;;;28.30;25.80;;;;;;;-1.17;87.28;96920.39;108955;1296;23120;-80
2023/01/30 11:58:37;;;;;;;27.40;25.00;;;;;;;-1.13;86.69;96903.35;108956;1296;22283;-80
2023/01/30 12:01:09;;;;;;;26.40;24.10;;;;;;;-1.12;86.85;96912.35;108854;1296;22226;-80
2023/01/30 12:03:47;;;;;;;25.70;23.60;;;;;;;-1.08;87.35;96909.44;108966;1296;23004;-79